createdAt,value
2019-06-26T00:02:08.447Z,58.90
2019-06-26T00:04:35.902Z,58.56
2019-06-26T00:07:03.381Z,58.19
2019-06-26T00:09:30.834Z,57.37
2019-06-26T00:11:58.301Z,57.86
2019-06-26T00:14:25.783Z,57.76
2019-06-26T00:16:53.216Z,57.70
2019-06-26T00:19:20.647Z,58.20
2019-06-26T00:21:48.286Z,58.71
2019-06-26T00:24:15.847Z,58.92
2019-06-26T00:26:43.276Z,58.72
2019-06-26T00:29:10.729Z,58.77
2019-06-26T00:31:38.156Z,58.01
2019-06-26T00:34:05.597Z,58.86
2019-06-26T00:36:33.042Z,58.67
2019-06-26T00:39:00.517Z,58.79
2019-06-26T00:41:27.962Z,58.16
2019-06-26T00:43:55.447Z,58.78
2019-06-26T00:46:22.900Z,59.03
2019-06-26T00:48:50.365Z,59.25
2019-06-26T00:51:17.784Z,59.46
2019-06-26T00:53:45.251Z,59.06
2019-06-26T00:56:12.721Z,59.25
2019-06-26T00:58:40.143Z,59.58
2019-06-26T01:01:07.591Z,59.14
2019-06-26T01:03:35.016Z,59.04
2019-06-26T01:06:02.486Z,59.16
2019-06-26T01:08:29.931Z,58.49
2019-06-26T01:10:58.061Z,59.70
2019-06-26T01:13:25.514Z,59.93
2019-06-26T01:15:52.983Z,60.33
2019-06-26T01:18:20.466Z,60.42
2019-06-26T01:20:47.950Z,60.83
2019-06-26T01:23:15.403Z,60.42
2019-06-26T01:25:42.871Z,60.19
2019-06-26T01:28:10.291Z,59.84
2019-06-26T01:30:37.758Z,60.42
2019-06-26T01:33:05.210Z,60.32
2019-06-26T01:35:32.667Z,60.34
2019-06-26T01:38:00.106Z,60.16
2019-06-26T01:40:27.575Z,60.39
2019-06-26T01:42:55.007Z,60.75
2019-06-26T01:45:22.449Z,60.32
2019-06-26T01:47:49.878Z,60.00
2019-06-26T01:50:17.343Z,59.48
2019-06-26T01:52:44.828Z,61.28
2019-06-26T01:55:12.294Z,61.69
2019-06-26T01:57:39.762Z,61.31
2019-06-26T02:00:07.971Z,61.39
2019-06-26T02:02:36.280Z,62.25
2019-06-26T02:05:03.793Z,62.25
2019-06-26T02:07:31.227Z,62.15
2019-06-26T02:09:59.457Z,61.66
2019-06-26T02:12:26.889Z,62.25
2019-06-26T02:14:54.387Z,62.54
2019-06-26T02:17:21.827Z,62.89
2019-06-26T02:19:49.347Z,63.00
2019-06-26T02:22:16.738Z,63.57
2019-06-26T02:24:45.735Z,63.77
2019-06-26T02:27:13.338Z,64.08
2019-06-26T02:29:40.869Z,63.73
2019-06-26T02:32:08.331Z,63.71
2019-06-26T02:34:35.767Z,63.77
2019-06-26T02:37:03.267Z,64.73
2019-06-26T02:39:30.819Z,64.00
2019-06-26T02:41:58.408Z,64.78
2019-06-26T02:44:25.970Z,64.69
2019-06-26T02:46:54.555Z,64.96
2019-06-26T02:49:22.070Z,65.58
2019-06-26T02:51:49.637Z,66.15
2019-06-26T02:54:17.279Z,66.60
2019-06-26T02:56:45.170Z,67.40
2019-06-26T02:59:13.183Z,66.59
2019-06-26T03:01:41.727Z,66.66
2019-06-26T03:04:09.324Z,67.02
2019-06-26T03:06:37.126Z,67.51
2019-06-26T03:09:14.183Z,68.50
2019-06-26T03:11:42.410Z,68.86
2019-06-26T03:16:43.048Z,70.26
2019-06-26T03:19:10.974Z,70.35
2019-06-26T03:21:41.209Z,70.39
2019-06-26T03:24:09.268Z,70.24
2019-06-26T03:26:37.046Z,70.17
2019-06-26T03:29:05.538Z,69.76
2019-06-26T03:31:33.705Z,69.69
2019-06-26T03:34:02.393Z,69.64
2019-06-26T03:36:30.741Z,69.60
2019-06-26T03:38:59.338Z,69.84
2019-06-26T03:41:27.849Z,70.77
2019-06-26T03:43:56.015Z,72.19
2019-06-26T03:46:23.780Z,72.47
2019-06-26T03:48:51.424Z,72.56
2019-06-26T03:51:19.319Z,73.38
2019-06-26T03:53:47.812Z,73.02
2019-06-26T03:56:15.484Z,73.58
2019-06-26T03:58:43.662Z,74.66
2019-06-26T04:01:11.724Z,72.85
2019-06-26T04:03:39.855Z,73.00
2019-06-26T04:06:07.631Z,74.85
2019-06-26T04:08:35.794Z,75.09
2019-06-26T04:11:04.554Z,75.71
2019-06-26T04:13:32.791Z,75.83
2019-06-26T04:16:01.080Z,76.11
2019-06-26T04:18:29.280Z,76.63
2019-06-26T04:20:57.795Z,76.30
2019-06-26T04:23:25.644Z,76.63
2019-06-26T04:25:53.662Z,75.84
2019-06-26T04:28:23.283Z,76.34
2019-06-26T04:30:51.181Z,76.45
2019-06-26T04:33:19.330Z,76.73
2019-06-26T04:35:47.546Z,76.44
2019-06-26T04:38:15.615Z,76.58
2019-06-26T04:40:44.677Z,76.49
2019-06-26T04:43:13.623Z,77.17
2019-06-26T04:45:57.290Z,78.12
2019-06-26T04:48:12.586Z,78.15
2019-06-26T04:50:41.577Z,78.98
2019-06-26T04:53:09.602Z,79.31
2019-06-26T04:55:37.891Z,79.84
2019-06-26T04:58:08.378Z,79.68
2019-06-26T05:00:36.348Z,79.73
2019-06-26T05:03:04.379Z,79.42
2019-06-26T05:05:39.714Z,79.44
2019-06-26T05:08:01.630Z,79.25
2019-06-26T05:10:29.466Z,80.63
2019-06-26T05:12:57.715Z,79.99
2019-06-26T05:15:25.483Z,80.59
2019-06-26T05:17:53.620Z,80.75
2019-06-26T05:20:21.496Z,80.06
2019-06-26T05:22:49.392Z,79.53
2019-06-26T05:25:17.372Z,79.80
2019-06-26T05:27:45.196Z,79.03
2019-06-26T05:30:13.243Z,79.26
2019-06-26T05:32:40.936Z,78.87
2019-06-26T05:35:08.998Z,79.41
2019-06-26T05:37:38.745Z,78.73
2019-06-26T05:40:09.451Z,78.64
2019-06-26T05:42:37.713Z,78.44
2019-06-26T05:45:05.428Z,78.88
2019-06-26T05:47:33.563Z,78.37
2019-06-26T05:50:01.477Z,78.44
2019-06-26T05:52:29.430Z,79.28
2019-06-26T05:54:57.486Z,78.89
2019-06-26T05:57:25.541Z,78.47
2019-06-26T05:59:53.442Z,78.77
2019-06-26T06:02:21.352Z,77.67
2019-06-26T06:04:51.162Z,77.79
2019-06-26T06:07:19.414Z,76.87
2019-06-26T06:09:48.392Z,76.12
2019-06-26T06:12:17.714Z,76.94
2019-06-26T06:14:45.496Z,76.51
2019-06-26T06:17:13.278Z,76.79
2019-06-26T06:19:41.302Z,76.45
2019-06-26T06:22:09.237Z,76.15
2019-06-26T06:24:37.272Z,76.24
2019-06-26T06:27:05.359Z,76.08
2019-06-26T06:29:35.351Z,74.42
2019-06-26T06:32:03.333Z,75.14
2019-06-26T06:34:31.219Z,74.61
2019-06-26T06:36:59.024Z,75.41
2019-06-26T06:39:31.345Z,75.18
2019-06-26T06:41:59.421Z,73.83
2019-06-26T06:44:27.537Z,73.56
2019-06-26T06:47:03.872Z,73.85
2019-06-26T06:49:23.461Z,73.88
2019-06-26T06:51:52.343Z,72.76
2019-06-26T06:54:20.217Z,72.62
2019-06-26T06:56:48.348Z,73.12
2019-06-26T06:59:16.216Z,72.53
2019-06-26T07:01:44.009Z,71.92
2019-06-26T07:04:12.444Z,72.31
2019-06-26T07:06:40.753Z,71.59
2019-06-26T07:09:08.760Z,71.47
2019-06-26T07:11:37.206Z,70.76
2019-06-26T07:14:04.928Z,70.84
2019-06-26T07:16:33.007Z,70.00
2019-06-26T07:19:00.746Z,69.22
2019-06-26T07:21:28.841Z,68.47
2019-06-26T07:23:57.094Z,68.76
2019-06-26T07:26:25.065Z,69.03
2019-06-26T07:28:52.763Z,69.58
2019-06-26T07:31:20.856Z,69.69
2019-06-26T07:33:48.772Z,68.66
2019-06-26T07:36:16.952Z,68.58
2019-06-26T07:38:46.080Z,67.84
2019-06-26T07:41:15.563Z,67.96
2019-06-26T07:43:43.356Z,67.63
2019-06-26T07:46:12.618Z,67.68
2019-06-26T07:48:40.434Z,67.95
2019-06-26T07:51:11.645Z,67.33
2019-06-26T07:53:39.150Z,67.42
2019-06-26T07:56:07.386Z,65.96
2019-06-26T07:58:35.285Z,65.70
2019-06-26T08:01:03.230Z,66.16
2019-06-26T08:03:31.071Z,65.47
2019-06-26T08:05:59.276Z,64.64
2019-06-26T08:08:27.155Z,65.37
2019-06-26T08:10:55.016Z,64.79
2019-06-26T08:13:22.669Z,62.98
2019-06-26T08:15:51.261Z,63.16
2019-06-26T08:18:19.621Z,62.49
2019-06-26T08:21:00.713Z,61.03
2019-06-26T08:23:16.142Z,61.02
2019-06-26T08:25:44.140Z,60.65
2019-06-26T08:28:12.221Z,60.38
2019-06-26T08:30:40.221Z,59.57
2019-06-26T08:33:08.203Z,58.89
2019-06-26T08:35:36.005Z,58.76
2019-06-26T08:38:10.192Z,55.79
2019-06-26T08:40:32.244Z,56.28
2019-06-26T08:43:00.192Z,55.87
2019-06-26T08:45:28.283Z,55.18
2019-06-26T08:47:57.008Z,54.84
2019-06-26T08:50:24.922Z,54.62
2019-06-26T08:52:52.708Z,54.87
2019-06-26T08:55:20.177Z,55.39
2019-06-26T08:57:48.060Z,54.91
2019-06-26T09:00:15.646Z,54.88
2019-06-26T09:02:43.244Z,54.06
2019-06-26T09:05:10.976Z,54.36
2019-06-26T09:07:38.610Z,53.01
2019-06-26T09:10:07.211Z,53.46
2019-06-26T09:12:35.061Z,52.37
2019-06-26T09:15:02.934Z,51.90
2019-06-26T09:17:30.900Z,53.34
2019-06-26T09:19:59.234Z,52.65
2019-06-26T09:22:28.163Z,51.48
2019-06-26T09:24:55.946Z,52.60
2019-06-26T09:27:23.539Z,53.87
2019-06-26T09:29:51.457Z,53.60
2019-06-26T09:32:19.037Z,51.13
2019-06-26T09:34:46.870Z,52.16
2019-06-26T09:37:14.488Z,51.66
2019-06-26T09:39:42.430Z,52.10
2019-06-26T09:42:10.047Z,51.83
2019-06-26T09:44:38.653Z,51.11
2019-06-26T09:47:06.546Z,49.87
2019-06-26T09:49:34.041Z,51.67
2019-06-26T09:52:02.091Z,51.88
2019-06-26T09:54:29.907Z,52.36
2019-06-26T09:56:57.545Z,53.20
2019-06-26T09:59:25.014Z,52.55
2019-06-26T10:01:54.182Z,53.23
2019-06-26T10:04:21.887Z,51.32
2019-06-26T10:06:49.924Z,51.38
2019-06-26T10:09:17.750Z,50.59
2019-06-26T10:11:45.934Z,50.52
2019-06-26T10:14:14.847Z,50.50
2019-06-26T10:16:42.615Z,50.92
2019-06-26T10:19:11.042Z,51.31
2019-06-26T10:21:38.826Z,51.77
2019-06-26T10:24:07.305Z,50.55
2019-06-26T10:26:35.202Z,49.91
2019-06-26T10:29:02.861Z,49.39
2019-06-26T10:31:30.601Z,50.54
2019-06-26T10:33:58.803Z,51.34
2019-06-26T10:36:26.465Z,49.73
2019-06-26T10:38:54.474Z,49.54
2019-06-26T10:41:22.921Z,49.63
2019-06-26T10:43:51.268Z,50.82
2019-06-26T10:46:19.098Z,50.94
2019-06-26T10:48:49.844Z,51.02
2019-06-26T10:51:17.440Z,51.10
2019-06-26T10:53:44.890Z,51.67
2019-06-26T10:56:12.694Z,50.13
2019-06-26T10:58:40.919Z,49.75
2019-06-26T11:01:08.567Z,49.57
2019-06-26T11:03:36.566Z,49.26
2019-06-26T11:06:04.622Z,50.12
2019-06-26T11:08:33.886Z,50.40
2019-06-26T11:11:02.071Z,50.30
2019-06-26T11:13:30.726Z,49.64
2019-06-26T11:15:58.609Z,49.20
2019-06-26T11:18:26.458Z,49.90
2019-06-26T11:20:56.275Z,50.42
2019-06-26T11:23:25.212Z,50.99
2019-06-26T11:25:52.769Z,51.00
2019-06-26T11:28:21.266Z,50.30
2019-06-26T11:30:48.985Z,50.29
2019-06-26T11:33:16.666Z,49.53
2019-06-26T11:35:47.161Z,50.23
2019-06-26T11:38:14.654Z,50.47
2019-06-26T11:40:42.935Z,48.85
2019-06-26T11:43:11.726Z,49.13
2019-06-26T11:45:39.791Z,49.09
2019-06-26T11:48:08.143Z,49.30
2019-06-26T11:50:36.726Z,49.20
2019-06-26T11:53:04.828Z,47.98
2019-06-26T11:55:36.727Z,48.76
2019-06-26T11:58:04.932Z,46.55
2019-06-26T12:00:32.727Z,46.13
2019-06-26T12:03:01.155Z,45.60
2019-06-26T12:05:28.911Z,42.14
2019-06-26T12:07:57.033Z,44.85
2019-06-26T12:10:24.942Z,46.11
2019-06-26T12:12:52.993Z,44.46
2019-06-26T12:15:20.756Z,44.49
2019-06-26T12:17:48.634Z,45.24
2019-06-26T12:20:19.076Z,45.05
2019-06-26T12:22:44.089Z,44.38
2019-06-26T12:25:12.361Z,44.99
2019-06-26T12:27:40.272Z,43.92
2019-06-26T12:30:08.299Z,43.43
2019-06-26T12:32:42.167Z,46.22
2019-06-26T12:35:05.169Z,47.05
2019-06-26T12:37:37.678Z,47.51
2019-06-26T12:40:01.101Z,43.43
2019-06-26T12:42:28.613Z,45.13
2019-06-26T12:44:56.515Z,45.70
2019-06-26T12:47:24.180Z,46.01
2019-06-26T12:49:52.343Z,45.94
2019-06-26T12:52:20.806Z,44.76
2019-06-26T12:54:48.353Z,46.26
2019-06-26T12:57:16.032Z,48.22
2019-06-26T12:59:56.930Z,47.09
2019-06-26T13:02:11.445Z,44.80
2019-06-26T13:04:39.459Z,46.26
2019-06-26T13:07:07.079Z,46.06
2019-06-26T13:09:34.553Z,46.56
2019-06-26T13:12:02.262Z,46.16
2019-06-26T13:14:29.993Z,46.50
2019-06-26T13:16:57.521Z,48.17
2019-06-26T13:19:25.027Z,48.65
2019-06-26T13:21:52.608Z,48.31
2019-06-26T13:24:20.432Z,48.32
2019-06-26T13:26:48.024Z,48.67
2019-06-26T13:29:17.606Z,48.55
2019-06-26T13:31:45.594Z,47.84
2019-06-26T13:34:13.623Z,47.55
2019-06-26T13:36:42.117Z,48.24
2019-06-26T13:39:10.090Z,47.65
2019-06-26T13:41:38.776Z,47.53
2019-06-26T13:44:06.297Z,47.18
2019-06-26T13:46:34.033Z,47.35
2019-06-26T13:49:01.709Z,46.68
2019-06-26T13:51:29.435Z,46.48
2019-06-26T13:53:57.125Z,45.59
2019-06-26T13:56:26.213Z,46.18
2019-06-26T13:58:53.727Z,44.55
2019-06-26T14:01:23.105Z,44.64
2019-06-26T14:03:50.417Z,44.98
2019-06-26T14:06:18.165Z,46.20
2019-06-26T14:08:45.905Z,46.36
2019-06-26T14:11:14.494Z,45.05
2019-06-26T14:13:42.565Z,45.19
2019-06-26T14:16:10.862Z,45.54
2019-06-26T14:18:38.332Z,46.79
2019-06-26T14:21:06.341Z,45.78
2019-06-26T14:23:37.650Z,45.71
2019-06-26T14:26:02.518Z,46.26
2019-06-26T14:28:31.512Z,45.86
2019-06-26T14:30:59.212Z,45.29
2019-06-26T14:33:27.429Z,46.34
2019-06-26T14:35:55.309Z,46.99
2019-06-26T14:38:22.914Z,47.24
2019-06-26T14:40:50.507Z,47.32
2019-06-26T14:43:18.312Z,46.82
2019-06-26T14:45:45.997Z,46.43
2019-06-26T14:48:14.033Z,45.84
2019-06-26T14:50:42.028Z,44.64
2019-06-26T14:53:09.761Z,44.95
2019-06-26T14:55:37.347Z,45.43
2019-06-26T14:58:05.195Z,45.03
2019-06-26T15:00:33.153Z,44.62
2019-06-26T15:03:01.271Z,45.17
2019-06-26T15:05:28.901Z,45.52
2019-06-26T15:07:56.743Z,45.93
2019-06-26T15:10:24.307Z,45.76
2019-06-26T15:12:52.767Z,45.42
2019-06-26T15:15:20.370Z,44.87
2019-06-26T15:17:48.122Z,44.82
2019-06-26T15:20:16.875Z,44.97
2019-06-26T15:22:44.488Z,45.25
2019-06-26T15:25:12.008Z,45.45
2019-06-26T15:27:40.498Z,45.53
2019-06-26T15:30:08.177Z,45.70
2019-06-26T15:32:35.784Z,45.76
2019-06-26T15:35:04.448Z,45.48
2019-06-26T15:37:32.275Z,45.82
2019-06-26T15:39:59.992Z,45.91
2019-06-26T15:42:27.711Z,45.38
2019-06-26T15:44:55.955Z,45.74
2019-06-26T15:47:23.743Z,45.76
2019-06-26T15:49:51.469Z,46.26
2019-06-26T15:52:19.741Z,45.92
2019-06-26T15:54:47.310Z,46.94
2019-06-26T15:57:17.487Z,46.29
2019-06-26T15:59:45.286Z,45.86
2019-06-26T16:02:12.901Z,45.62
2019-06-26T16:04:41.497Z,45.63
2019-06-26T16:07:09.465Z,45.51
2019-06-26T16:09:37.300Z,46.02
2019-06-26T16:12:05.086Z,45.79
2019-06-26T16:14:32.859Z,45.16
2019-06-26T16:17:15.998Z,45.12
2019-06-26T16:19:44.127Z,44.75
2019-06-26T16:22:11.618Z,45.29
2019-06-26T16:24:39.390Z,45.36
2019-06-26T16:27:07.919Z,45.35
2019-06-26T16:29:36.441Z,45.11
2019-06-26T16:32:04.186Z,44.65
2019-06-26T16:34:32.940Z,44.50
2019-06-26T16:37:00.672Z,44.88
2019-06-26T16:39:28.842Z,44.91
2019-06-26T16:41:57.092Z,44.49
2019-06-26T16:44:24.790Z,43.88
2019-06-26T16:46:53.168Z,43.83
2019-06-26T16:49:23.540Z,43.92
2019-06-26T16:51:51.686Z,44.03
2019-06-26T16:54:21.123Z,43.69
2019-06-26T16:56:49.649Z,44.79
2019-06-26T16:59:17.711Z,44.75
2019-06-26T17:01:46.684Z,44.74
2019-06-26T17:04:14.373Z,45.48
2019-06-26T17:06:42.255Z,45.16
2019-06-26T17:09:09.813Z,45.33
2019-06-26T17:11:37.847Z,45.51
2019-06-26T17:14:08.143Z,45.67
2019-06-26T17:16:37.291Z,47.57
2019-06-26T17:19:05.258Z,47.17
2019-06-26T17:21:33.254Z,47.87
2019-06-26T17:24:00.820Z,48.34
2019-06-26T17:26:28.661Z,47.90
2019-06-26T17:28:57.189Z,48.82
2019-06-26T17:31:27.209Z,50.88
2019-06-26T17:34:00.040Z,51.24
2019-06-26T17:36:35.103Z,50.64
2019-06-26T17:39:07.585Z,50.84
2019-06-26T17:41:43.961Z,50.35
2019-06-26T17:44:23.310Z,51.44
2019-06-26T17:46:58.748Z,51.24
2019-06-26T17:49:32.643Z,50.71
2019-06-26T17:52:03.171Z,50.64
2019-06-26T17:54:37.127Z,50.38
2019-06-26T17:57:07.175Z,50.43
2019-06-26T17:59:39.329Z,50.58
2019-06-26T18:02:14.372Z,50.02
2019-06-26T18:04:46.507Z,49.95
2019-06-26T18:07:20.466Z,50.02
2019-06-26T18:09:53.816Z,50.44
2019-06-26T18:12:27.849Z,50.40
2019-06-26T18:14:57.822Z,50.20
2019-06-26T18:17:29.390Z,50.25
2019-06-26T18:20:00.671Z,50.86
2019-06-26T18:22:31.741Z,51.14
2019-06-26T18:25:05.834Z,50.70
2019-06-26T18:27:36.414Z,50.41
2019-06-26T18:30:08.274Z,50.64
2019-06-26T18:32:36.754Z,50.92
2019-06-26T18:35:05.537Z,51.14
2019-06-26T18:37:33.140Z,51.35
2019-06-26T18:40:00.955Z,51.70
2019-06-26T18:42:28.895Z,51.61
2019-06-26T18:44:57.131Z,51.70
2019-06-26T18:47:25.205Z,51.85
2019-06-26T18:49:52.866Z,51.85
2019-06-26T18:52:24.958Z,51.92
2019-06-26T18:54:53.422Z,51.99
2019-06-26T18:57:22.895Z,52.40
2019-06-26T18:59:55.049Z,51.74
2019-06-26T19:02:22.890Z,51.96
2019-06-26T19:04:54.039Z,51.42
2019-06-26T19:07:18.918Z,51.82
2019-06-26T19:09:46.756Z,50.86
2019-06-26T19:12:14.675Z,50.88
2019-06-26T19:14:45.939Z,50.50
2019-06-26T19:17:11.329Z,50.48
2019-06-26T19:19:39.194Z,50.20
2019-06-26T19:22:07.095Z,50.28
2019-06-26T19:24:39.312Z,50.13
2019-06-26T19:27:07.843Z,50.13
2019-06-26T19:29:35.051Z,50.21
2019-06-26T19:32:03.084Z,50.43
2019-06-26T19:34:31.662Z,50.61
2019-06-26T19:36:59.918Z,50.45
2019-06-26T19:39:27.722Z,50.68
2019-06-26T19:41:55.783Z,51.10
2019-06-26T19:44:23.557Z,51.07
2019-06-26T19:46:51.674Z,51.08
2019-06-26T19:49:20.116Z,51.19
2019-06-26T19:51:47.639Z,51.27
2019-06-26T19:54:27.081Z,51.62
2019-06-26T19:56:49.180Z,51.86
2019-06-26T19:59:16.952Z,51.88
2019-06-26T20:01:44.683Z,52.05
2019-06-26T20:04:12.358Z,52.10
2019-06-26T20:06:39.824Z,52.37
2019-06-26T20:09:07.276Z,52.28
2019-06-26T20:11:34.854Z,52.33
2019-06-26T20:14:02.357Z,52.59
2019-06-26T20:16:29.823Z,52.91
2019-06-26T20:18:57.295Z,52.76
2019-06-26T20:21:25.254Z,53.25
2019-06-26T20:23:53.817Z,53.10
2019-06-26T20:26:21.407Z,52.90
2019-06-26T20:28:50.483Z,53.09
2019-06-26T20:31:18.067Z,52.96
2019-06-26T20:33:52.314Z,53.09
2019-06-26T20:36:20.419Z,53.28
2019-06-26T20:38:47.941Z,53.35
2019-06-26T20:41:15.789Z,53.20
2019-06-26T20:43:43.367Z,53.16
2019-06-26T20:46:10.807Z,53.45
2019-06-26T20:48:38.419Z,53.51
2019-06-26T20:51:05.946Z,53.07
2019-06-26T20:53:33.392Z,53.32
2019-06-26T20:56:00.888Z,53.40
2019-06-26T20:58:28.341Z,53.54
2019-06-26T21:00:55.876Z,53.55
2019-06-26T21:03:23.343Z,53.72
2019-06-26T21:05:50.768Z,53.71
2019-06-26T21:08:18.348Z,53.66
2019-06-26T21:10:49.634Z,53.69
2019-06-26T21:13:16.984Z,53.97
2019-06-26T21:15:44.437Z,53.95
2019-06-26T21:18:12.219Z,53.87
2019-06-26T21:20:39.728Z,54.16
2019-06-26T21:23:17.789Z,54.14
2019-06-26T21:25:34.706Z,54.38
2019-06-26T21:28:03.192Z,54.45
2019-06-26T21:30:30.800Z,54.44
2019-06-26T21:32:58.265Z,54.53
2019-06-26T21:35:25.696Z,54.37
2019-06-26T21:37:53.671Z,55.03
2019-06-26T21:40:21.095Z,55.05
2019-06-26T21:42:48.543Z,54.92
2019-06-26T21:45:19.155Z,55.32
2019-06-26T21:47:43.551Z,55.18
2019-06-26T21:50:11.669Z,54.96
2019-06-26T21:52:39.158Z,55.07
2019-06-26T21:55:06.587Z,55.48
2019-06-26T21:57:34.054Z,55.64
2019-06-26T22:00:01.532Z,55.66
2019-06-26T22:02:28.989Z,55.48
2019-06-26T22:04:56.483Z,55.75
2019-06-26T22:07:24.320Z,56.35
2019-06-26T22:09:51.918Z,56.17
2019-06-26T22:12:19.374Z,56.24
2019-06-26T22:14:47.080Z,56.42
2019-06-26T22:17:15.302Z,56.71
2019-06-26T22:19:42.791Z,56.79
2019-06-26T22:22:10.234Z,56.86
2019-06-26T22:24:37.660Z,56.90
2019-06-26T22:27:05.296Z,56.78
2019-06-26T22:29:32.806Z,56.86
2019-06-26T22:32:00.247Z,57.30
2019-06-26T22:34:27.700Z,57.48
2019-06-26T22:36:55.271Z,57.38
2019-06-26T22:39:22.774Z,58.02
2019-06-26T22:41:50.762Z,58.02
2019-06-26T22:44:18.223Z,58.14
2019-06-26T22:46:45.663Z,58.87
2019-06-26T22:49:13.413Z,58.63
2019-06-26T22:51:43.109Z,58.36
2019-06-26T22:54:10.659Z,58.50
2019-06-26T22:56:39.618Z,58.58
2019-06-26T22:59:07.089Z,58.78
2019-06-26T23:01:34.595Z,58.65
2019-06-26T23:04:02.068Z,58.57
2019-06-26T23:06:30.660Z,58.64
2019-06-26T23:08:58.178Z,58.72
2019-06-26T23:11:25.643Z,58.62
2019-06-26T23:13:53.937Z,58.78
2019-06-26T23:16:21.487Z,59.13
2019-06-26T23:18:49.037Z,59.47
2019-06-26T23:21:16.555Z,58.90
2019-06-26T23:23:44.039Z,58.93
2019-06-26T23:26:23.579Z,58.50
2019-06-26T23:28:39.047Z,58.24
2019-06-26T23:31:06.520Z,58.83
2019-06-26T23:33:34.004Z,58.64
2019-06-26T23:36:02.443Z,58.66
2019-06-26T23:38:30.036Z,58.75
2019-06-26T23:40:57.540Z,58.93
2019-06-26T23:43:24.961Z,59.03
2019-06-26T23:45:52.438Z,58.96
2019-06-26T23:48:19.846Z,59.26
2019-06-26T23:50:47.542Z,59.24
2019-06-26T23:53:15.306Z,59.36
2019-06-26T23:55:42.756Z,59.51
2019-06-26T23:58:11.197Z,59.62
